createdAt,value
2022-08-18T00:02:06.590Z,21.72
2022-08-18T00:04:49.159Z,21.75
2022-08-18T00:07:24.613Z,21.70
2022-08-18T00:09:51.847Z,21.71
2022-08-18T00:12:25.295Z,21.68
2022-08-18T00:14:53.136Z,21.68
2022-08-18T00:17:20.738Z,21.74
2022-08-18T00:19:48.454Z,21.74
2022-08-18T00:22:19.700Z,21.69
2022-08-18T00:24:52.065Z,21.58
2022-08-18T00:27:23.234Z,21.54
2022-08-18T00:29:50.913Z,21.57
2022-08-18T00:32:26.166Z,21.48
2022-08-18T00:34:53.673Z,21.34
2022-08-18T00:37:21.540Z,21.39
2022-08-18T00:39:51.194Z,21.39
2022-08-18T00:42:30.017Z,21.45
2022-08-18T00:45:00.881Z,21.42
2022-08-18T00:47:32.987Z,21.57
2022-08-18T00:50:23.035Z,21.63
2022-08-18T00:53:03.789Z,21.66
2022-08-18T00:55:31.841Z,21.64
2022-08-18T00:58:15.953Z,21.65
2022-08-18T01:00:44.707Z,21.58
2022-08-18T01:03:15.037Z,21.68
2022-08-18T01:06:01.998Z,21.72
2022-08-18T01:08:29.512Z,21.81
2022-08-18T01:10:58.907Z,21.78
2022-08-18T01:13:29.075Z,21.75
2022-08-18T01:15:55.920Z,21.67
2022-08-18T01:18:41.781Z,21.69
2022-08-18T01:21:39.756Z,21.88
2022-08-18T01:24:12.694Z,21.99
2022-08-18T01:26:49.751Z,22.09
2022-08-18T01:29:19.516Z,22.08
2022-08-18T01:31:54.327Z,21.97
2022-08-18T01:34:24.684Z,21.91
2022-08-18T01:36:53.033Z,21.90
2022-08-18T01:41:23.094Z,21.92
2022-08-18T01:42:06.502Z,21.84
2022-08-18T01:44:33.744Z,21.65
2022-08-18T01:47:00.256Z,21.44
2022-08-18T01:49:28.814Z,21.14
2022-08-18T01:51:58.171Z,21.02
2022-08-18T01:54:30.141Z,21.15
2022-08-18T01:56:57.313Z,21.21
2022-08-18T01:59:24.022Z,21.31
2022-08-18T02:01:52.997Z,21.48
2022-08-18T02:04:35.543Z,21.57
2022-08-18T02:07:05.968Z,21.57
2022-08-18T02:09:33.550Z,21.57
2022-08-18T02:12:01.226Z,21.61
2022-08-18T02:14:27.797Z,21.65
2022-08-18T02:17:01.287Z,21.60
2022-08-18T02:19:34.272Z,21.57
2022-08-18T02:22:01.146Z,21.61
2022-08-18T02:24:27.680Z,21.61
2022-08-18T02:26:54.290Z,21.61
2022-08-18T02:29:20.772Z,21.60
2022-08-18T02:31:47.233Z,21.59
2022-08-18T02:34:15.634Z,21.57
2022-08-18T02:36:42.241Z,21.56
2022-08-18T02:39:08.688Z,21.48
2022-08-18T02:41:36.893Z,21.42
2022-08-18T02:44:05.922Z,21.52
2022-08-18T02:46:32.444Z,21.59
2022-08-18T02:48:59.961Z,21.61
2022-08-18T02:51:26.903Z,21.57
2022-08-18T02:53:53.857Z,21.40
2022-08-18T02:56:33.725Z,21.35
2022-08-18T02:59:11.752Z,21.36
2022-08-18T03:01:41.250Z,21.28
2022-08-18T03:04:10.373Z,21.29
2022-08-18T03:06:39.108Z,21.24
2022-08-18T03:09:08.100Z,21.28
2022-08-18T03:11:35.761Z,21.29
2022-08-18T03:14:02.273Z,21.41
2022-08-18T03:16:31.429Z,21.49
2022-08-18T03:18:58.021Z,21.44
2022-08-18T03:21:26.523Z,21.38
2022-08-18T03:24:00.907Z,21.37
2022-08-18T03:26:30.091Z,21.31
2022-08-18T03:28:58.245Z,21.28
2022-08-18T03:31:27.725Z,21.31
2022-08-18T03:33:59.100Z,21.32
2022-08-18T03:36:29.263Z,21.33
2022-08-18T03:38:55.797Z,21.29
2022-08-18T03:41:44.485Z,21.16
2022-08-18T03:44:15.529Z,21.03
2022-08-18T03:46:44.445Z,20.94
2022-08-18T03:49:11.593Z,20.91
2022-08-18T03:51:38.449Z,20.99
2022-08-18T03:54:06.255Z,21.17
2022-08-18T03:56:36.278Z,21.09
2022-08-18T03:59:12.348Z,20.89
2022-08-18T04:01:41.971Z,20.81
2022-08-18T04:04:11.567Z,20.77
2022-08-18T04:06:43.683Z,20.83
2022-08-18T04:09:13.309Z,20.90
2022-08-18T04:11:44.423Z,20.98
2022-08-18T04:14:13.692Z,21.08
2022-08-18T04:16:41.307Z,21.15
2022-08-18T04:19:08.872Z,21.06
2022-08-18T04:21:38.296Z,21.02
2022-08-18T04:24:05.528Z,21.18
2022-08-18T04:26:33.759Z,21.21
2022-08-18T04:29:01.705Z,21.16
2022-08-18T04:31:29.478Z,21.19
2022-08-18T04:33:56.836Z,21.19
2022-08-18T04:36:23.861Z,21.21
2022-08-18T04:38:50.804Z,21.22
2022-08-18T04:41:17.322Z,21.18
2022-08-18T04:43:43.868Z,21.15
2022-08-18T04:46:11.292Z,21.19
2022-08-18T04:48:40.634Z,21.17
2022-08-18T04:52:30.935Z,21.12
2022-08-18T04:54:02.269Z,20.86
2022-08-18T04:56:33.590Z,20.83
2022-08-18T04:59:06.534Z,20.73
2022-08-18T05:01:41.619Z,20.70
2022-08-18T05:04:09.194Z,20.71
2022-08-18T05:06:36.032Z,20.68
2022-08-18T05:09:06.270Z,20.73
2022-08-18T05:11:34.565Z,20.68
2022-08-18T05:14:02.609Z,20.78
2022-08-18T05:16:30.037Z,20.84
2022-08-18T05:18:57.075Z,20.72
2022-08-18T05:21:25.213Z,20.68
2022-08-18T05:23:52.410Z,20.81
2022-08-18T05:26:19.313Z,20.92
2022-08-18T05:28:46.792Z,20.86
2022-08-18T05:31:20.593Z,20.89
2022-08-18T05:33:47.812Z,20.87
2022-08-18T05:36:38.614Z,20.91
2022-08-18T05:39:20.221Z,20.87
2022-08-18T05:42:06.038Z,20.81
2022-08-18T05:44:37.210Z,20.82
2022-08-18T05:47:13.664Z,20.78
2022-08-18T05:49:49.278Z,20.66
2022-08-18T05:53:03.970Z,20.62
2022-08-18T05:56:15.989Z,20.58
2022-08-18T05:58:49.385Z,20.56
2022-08-18T06:01:22.089Z,20.57
2022-08-18T06:03:59.712Z,20.63
2022-08-18T06:06:30.271Z,20.72
2022-08-18T06:09:19.940Z,20.77
2022-08-18T06:11:47.237Z,20.82
2022-08-18T06:14:13.755Z,20.84
2022-08-18T06:16:58.508Z,20.86
2022-08-18T06:20:02.190Z,21.00
2022-08-18T06:22:52.457Z,20.91
2022-08-18T06:25:33.100Z,20.67
2022-08-18T06:28:14.284Z,20.29
2022-08-18T06:30:56.627Z,20.35
2022-08-18T06:33:46.878Z,20.26
2022-08-18T06:36:22.477Z,20.14
2022-08-18T06:39:11.919Z,20.24
2022-08-18T06:41:43.801Z,20.62
2022-08-18T06:44:16.316Z,20.47
2022-08-18T06:46:53.667Z,20.20
2022-08-18T06:49:37.183Z,20.07
2022-08-18T06:52:21.917Z,19.95
2022-08-18T06:54:51.325Z,19.94
2022-08-18T06:57:40.265Z,19.89
2022-08-18T07:00:20.752Z,19.94
2022-08-18T07:02:53.147Z,19.98
2022-08-18T07:05:32.173Z,20.11
2022-08-18T07:08:29.709Z,20.42
2022-08-18T07:11:10.565Z,20.87
2022-08-18T07:13:40.380Z,21.63
2022-08-18T07:16:40.576Z,21.57
2022-08-18T07:19:12.746Z,21.38
2022-08-18T07:21:40.938Z,21.30
2022-08-18T07:24:24.789Z,21.24
2022-08-18T07:26:57.915Z,21.48
2022-08-18T07:29:24.428Z,21.38
2022-08-18T07:31:53.995Z,21.56
2022-08-18T07:34:41.170Z,21.40
2022-08-18T07:37:19.602Z,21.18
2022-08-18T07:40:01.239Z,21.10
2022-08-18T07:43:01.883Z,21.41
2022-08-18T07:45:31.666Z,21.47
2022-08-18T07:48:34.336Z,21.54
2022-08-18T07:51:21.769Z,21.72
2022-08-18T07:53:56.019Z,21.74
2022-08-18T07:56:50.274Z,21.70
2022-08-18T08:02:04.254Z,21.86
2022-08-18T08:04:38.251Z,21.87
2022-08-18T08:07:26.215Z,22.03
2022-08-18T08:10:13.200Z,22.22
2022-08-18T08:12:50.420Z,22.01
2022-08-18T08:15:28.109Z,21.80
2022-08-18T08:18:13.512Z,22.16
2022-08-18T08:20:57.468Z,22.23
2022-08-18T08:23:46.753Z,21.89
2022-08-18T08:26:21.606Z,21.69
2022-08-18T08:29:00.848Z,21.71
2022-08-18T08:31:54.308Z,21.62
2022-08-18T08:34:44.110Z,21.66
2022-08-18T08:37:15.839Z,21.33
2022-08-18T08:39:57.797Z,21.13
2022-08-18T08:43:02.724Z,20.92
2022-08-18T08:45:36.910Z,20.79
2022-08-18T08:48:17.720Z,21.01
2022-08-18T08:50:54.522Z,21.30
2022-08-18T08:53:26.813Z,21.34
2022-08-18T08:56:06.737Z,21.49
2022-08-18T08:58:42.010Z,21.50
2022-08-18T09:01:59.891Z,21.16
2022-08-18T09:04:32.229Z,20.64
2022-08-18T09:07:38.541Z,20.62
2022-08-18T09:10:39.746Z,20.77
2022-08-18T09:13:29.263Z,21.02
2022-08-18T09:16:13.364Z,21.30
2022-08-18T09:18:56.071Z,21.05
2022-08-18T09:21:28.426Z,20.84
2022-08-18T09:24:26.275Z,20.58
2022-08-18T09:27:23.719Z,20.72
2022-08-18T09:29:57.751Z,20.84
2022-08-18T09:32:25.846Z,21.02
2022-08-18T09:34:58.272Z,21.21
2022-08-18T09:37:42.723Z,21.11
2022-08-18T09:40:59.365Z,20.91
2022-08-18T09:43:36.670Z,20.70
2022-08-18T09:46:06.093Z,20.88
2022-08-18T09:48:42.941Z,21.18
2022-08-18T09:51:20.729Z,21.26
2022-08-18T09:53:52.274Z,21.26
2022-08-18T09:56:53.462Z,21.56
2022-08-18T09:59:34.225Z,21.54
2022-08-18T10:02:11.606Z,20.87
2022-08-18T10:04:51.368Z,21.05
2022-08-18T10:07:43.266Z,21.43
2022-08-18T10:11:01.479Z,20.39
2022-08-18T10:13:33.899Z,19.89
2022-08-18T10:16:23.715Z,19.74
2022-08-18T10:22:10.696Z,19.83
2022-08-18T10:24:39.881Z,19.92
2022-08-18T10:27:13.161Z,19.97
2022-08-18T10:29:46.168Z,19.94
2022-08-18T10:32:14.038Z,19.90
2022-08-18T10:34:55.453Z,19.95
2022-08-18T10:37:36.372Z,20.03
2022-08-18T10:40:16.678Z,20.10
2022-08-18T10:42:53.182Z,20.14
2022-08-18T10:45:34.352Z,20.18
2022-08-18T10:48:24.374Z,20.20
2022-08-18T10:51:11.566Z,20.16
2022-08-18T10:53:48.101Z,20.12
2022-08-18T10:56:33.608Z,20.11
2022-08-18T10:59:15.936Z,20.05
2022-08-18T11:02:18.329Z,19.96
2022-08-18T11:04:59.154Z,19.71
2022-08-18T11:07:34.030Z,19.42
2022-08-18T11:10:29.522Z,19.39
2022-08-18T11:13:07.346Z,19.41
2022-08-18T11:15:56.882Z,19.50
2022-08-18T11:18:36.205Z,19.48
2022-08-18T11:21:22.225Z,19.52
2022-08-18T11:27:23.890Z,19.68
2022-08-18T11:29:51.605Z,19.79
2022-08-18T11:32:18.152Z,19.80
2022-08-18T11:34:52.977Z,19.92
2022-08-18T11:46:38.742Z,19.61
2022-08-18T11:49:23.995Z,19.79
2022-08-18T11:52:02.184Z,19.87
2022-08-18T11:57:54.384Z,20.14
2022-08-18T12:00:47.268Z,20.22
2022-08-18T12:03:19.694Z,20.19
2022-08-18T12:05:56.557Z,20.39
2022-08-18T12:11:46.044Z,20.73
2022-08-18T12:14:30.673Z,20.79
2022-08-18T12:17:02.535Z,20.72
2022-08-18T12:19:31.029Z,20.62
2022-08-18T12:22:00.320Z,20.61
2022-08-18T12:24:36.703Z,20.61
2022-08-18T12:27:12.393Z,20.67
2022-08-18T12:29:47.871Z,20.77
2022-08-18T12:32:18.070Z,21.01
2022-08-18T12:35:09.195Z,21.27
2022-08-18T12:40:24.293Z,21.94
2022-08-18T12:42:51.002Z,21.89
2022-08-18T12:45:17.718Z,21.81
2022-08-18T12:47:46.397Z,21.73
2022-08-18T12:50:12.941Z,22.03
2022-08-18T12:52:39.583Z,22.15
2022-08-18T12:55:21.362Z,22.18
2022-08-18T12:57:52.079Z,22.18
2022-08-18T13:00:21.155Z,22.35
2022-08-18T13:02:55.872Z,22.22
2022-08-18T13:05:27.414Z,22.03
2022-08-18T13:08:04.331Z,22.06
2022-08-18T13:10:44.932Z,22.06
2022-08-18T13:13:13.573Z,22.25
2022-08-18T13:15:44.368Z,22.21
2022-08-18T13:18:27.184Z,22.29
2022-08-18T13:20:57.558Z,22.39
2022-08-18T13:23:27.168Z,21.98
2022-08-18T13:25:59.360Z,21.56
2022-08-18T13:28:30.988Z,21.46
2022-08-18T13:31:04.150Z,21.57
2022-08-18T13:33:34.457Z,21.91
2022-08-18T13:36:19.645Z,21.88
2022-08-18T13:38:46.751Z,22.02
2022-08-18T13:41:15.789Z,21.98
2022-08-18T13:43:44.618Z,21.99
2022-08-18T13:46:18.396Z,21.80
2022-08-18T13:48:46.785Z,21.84
2022-08-18T13:51:22.116Z,22.08
2022-08-18T13:53:58.923Z,22.13
2022-08-18T13:56:33.282Z,21.69
2022-08-18T13:59:04.875Z,21.51
2022-08-18T14:01:45.400Z,21.69
2022-08-18T14:04:20.260Z,21.94
2022-08-18T14:06:56.277Z,22.06
2022-08-18T14:09:27.929Z,21.95
2022-08-18T14:12:28.267Z,22.01
2022-08-18T14:14:57.695Z,22.12
2022-08-18T14:17:25.537Z,22.08
2022-08-18T14:20:14.950Z,22.36
2022-08-18T14:23:09.001Z,22.28
2022-08-18T14:25:54.420Z,22.23
2022-08-18T14:28:24.913Z,22.03
2022-08-18T14:30:54.816Z,21.91
2022-08-18T14:33:34.018Z,22.09
2022-08-18T14:36:09.999Z,22.16
2022-08-18T14:38:36.714Z,22.40
2022-08-18T14:41:07.810Z,22.47
2022-08-18T14:43:50.816Z,22.42
2022-08-18T14:46:23.167Z,22.36
2022-08-18T14:48:57.035Z,22.56
2022-08-18T14:51:27.089Z,22.90
2022-08-18T14:53:54.314Z,23.18
2022-08-18T14:56:22.452Z,23.16
2022-08-18T14:58:51.002Z,22.94
2022-08-18T15:01:18.287Z,23.04
2022-08-18T15:03:44.789Z,23.37
2022-08-18T15:06:17.104Z,23.52
2022-08-18T15:08:49.439Z,23.44
2022-08-18T15:11:16.569Z,23.26
2022-08-18T15:13:46.492Z,22.97
2022-08-18T15:16:15.074Z,23.01
2022-08-18T15:18:43.546Z,22.94
2022-08-18T15:21:38.739Z,22.87
2022-08-18T15:24:24.840Z,22.89
2022-08-18T15:27:05.944Z,22.84
2022-08-18T15:29:36.894Z,22.84
2022-08-18T15:32:10.610Z,22.81
2022-08-18T15:34:47.371Z,22.86
2022-08-18T15:37:19.796Z,22.85
2022-08-18T15:39:55.545Z,22.85
2022-08-18T15:42:23.463Z,22.98
2022-08-18T15:44:52.593Z,23.01
2022-08-18T15:47:20.771Z,22.95
2022-08-18T15:49:47.832Z,22.84
2022-08-18T15:52:15.240Z,22.77
2022-08-18T15:54:44.464Z,22.75
2022-08-18T15:57:35.272Z,22.68
2022-08-18T16:00:04.621Z,22.70
2022-08-18T16:02:31.661Z,22.65
2022-08-18T16:05:01.922Z,22.60
2022-08-18T16:07:41.221Z,22.60
2022-08-18T16:10:12.670Z,22.63
2022-08-18T16:12:45.737Z,22.67
2022-08-18T16:17:39.975Z,22.71
2022-08-18T16:20:08.132Z,22.66
2022-08-18T16:22:37.829Z,22.65
2022-08-18T16:25:07.863Z,22.61
2022-08-18T16:27:36.027Z,22.63
2022-08-18T16:30:04.633Z,22.63
2022-08-18T16:32:32.001Z,22.63
2022-08-18T16:34:59.108Z,22.61
2022-08-18T16:37:27.069Z,22.61
2022-08-18T16:39:54.407Z,22.65
2022-08-18T16:42:20.969Z,22.65
2022-08-18T16:44:47.521Z,22.61
2022-08-18T16:47:17.602Z,22.64
2022-08-18T16:49:49.665Z,22.67
2022-08-18T16:52:17.443Z,22.70
2022-08-18T16:54:45.010Z,22.70
2022-08-18T16:57:11.761Z,22.67
2022-08-18T16:59:57.399Z,22.65
2022-08-18T17:02:43.141Z,22.58
2022-08-18T17:05:12.224Z,22.57
2022-08-18T17:07:38.879Z,22.58
2022-08-18T17:10:06.302Z,22.60
2022-08-18T17:12:32.922Z,22.63
2022-08-18T17:14:59.601Z,22.61
2022-08-18T17:17:26.083Z,22.58
2022-08-18T17:19:53.458Z,22.47
2022-08-18T17:22:20.297Z,22.47
2022-08-18T17:24:49.582Z,22.51
2022-08-18T17:27:26.703Z,22.48
2022-08-18T17:30:08.559Z,22.46
2022-08-18T17:32:49.149Z,22.44
2022-08-18T17:35:28.585Z,22.40
2022-08-18T17:38:21.955Z,22.38
2022-08-18T17:40:54.922Z,22.36
2022-08-18T17:43:25.006Z,22.29
2022-08-18T17:45:58.941Z,22.27
2022-08-18T17:48:42.130Z,22.25
2022-08-18T17:51:34.427Z,22.22
2022-08-18T17:54:11.952Z,22.18
2022-08-18T17:56:45.868Z,22.17
2022-08-18T17:59:45.524Z,22.12
2022-08-18T18:02:29.178Z,22.07
2022-08-18T18:04:58.773Z,22.10
2022-08-18T18:07:31.420Z,22.07
2022-08-18T18:10:10.338Z,22.05
2022-08-18T18:12:38.567Z,21.99
2022-08-18T18:15:09.061Z,21.90
2022-08-18T18:17:44.520Z,21.86
2022-08-18T18:20:16.327Z,21.87
2022-08-18T18:22:43.937Z,21.87
2022-08-18T18:25:12.894Z,21.86
2022-08-18T18:27:48.437Z,21.79
2022-08-18T18:30:25.012Z,21.75
2022-08-18T18:33:15.120Z,21.62
2022-08-18T18:35:54.874Z,21.61
2022-08-18T18:38:40.682Z,21.55
2022-08-18T18:41:12.855Z,21.45
2022-08-18T18:43:43.499Z,21.34
2022-08-18T18:46:24.820Z,21.24
2022-08-18T18:49:09.598Z,21.26
2022-08-18T18:52:03.546Z,21.29
2022-08-18T18:54:51.013Z,21.28
2022-08-18T18:57:31.885Z,21.28
2022-08-18T19:00:18.266Z,21.28
2022-08-18T19:03:10.945Z,21.32
2022-08-18T19:05:56.631Z,21.33
2022-08-18T19:08:35.882Z,21.33
2022-08-18T19:11:10.416Z,21.30
2022-08-18T19:13:46.413Z,21.28
2022-08-18T19:16:37.514Z,21.27
2022-08-18T19:19:37.834Z,21.31
2022-08-18T19:22:25.464Z,21.34
2022-08-18T19:25:13.464Z,21.31
2022-08-18T19:27:50.634Z,21.23
2022-08-18T19:30:18.938Z,21.19
2022-08-18T19:32:49.689Z,21.09
2022-08-18T19:35:21.748Z,21.04
2022-08-18T19:38:01.952Z,20.96
2022-08-18T19:41:13.059Z,20.93
2022-08-18T19:43:57.897Z,21.01
2022-08-18T19:46:34.714Z,20.98
2022-08-18T19:49:07.191Z,20.89
2022-08-18T19:51:40.009Z,20.80
2022-08-18T19:54:20.397Z,20.81
2022-08-18T19:57:08.546Z,20.83
2022-08-18T19:59:49.725Z,20.84
2022-08-18T20:02:35.015Z,20.81
2022-08-18T20:05:34.019Z,20.79
2022-08-18T20:08:25.691Z,20.73
2022-08-18T20:11:08.024Z,20.64
2022-08-18T20:13:43.626Z,20.54
2022-08-18T20:16:35.487Z,20.50
2022-08-18T20:19:38.573Z,20.47
2022-08-18T20:22:15.961Z,20.50
2022-08-18T20:24:57.401Z,20.58
2022-08-18T20:27:34.169Z,20.66
2022-08-18T20:30:20.464Z,20.63
2022-08-18T20:33:22.431Z,20.64
2022-08-18T20:35:51.933Z,20.57
2022-08-18T20:38:35.490Z,20.51
2022-08-18T20:41:28.126Z,20.47
2022-08-18T20:44:13.453Z,20.46
2022-08-18T20:47:07.092Z,20.41
2022-08-18T20:49:49.376Z,20.37
2022-08-18T20:52:38.596Z,20.26
2022-08-18T20:55:16.378Z,20.29
2022-08-18T20:57:44.087Z,20.37
2022-08-18T21:00:26.993Z,20.30
2022-08-18T21:02:59.083Z,20.16
2022-08-18T21:05:35.227Z,20.11
2022-08-18T21:08:26.371Z,20.11
2022-08-18T21:10:54.515Z,20.17
2022-08-18T21:13:40.901Z,20.25
2022-08-18T21:16:13.124Z,20.32
2022-08-18T21:19:02.626Z,20.24
2022-08-18T21:21:32.586Z,20.20
2022-08-18T21:24:02.886Z,20.17
2022-08-18T21:26:32.352Z,20.19
2022-08-18T21:29:06.469Z,20.32
2022-08-18T21:31:44.271Z,20.41
2022-08-18T21:34:18.433Z,20.44
2022-08-18T21:36:52.151Z,20.44
2022-08-18T21:39:20.336Z,20.43
2022-08-18T21:41:50.578Z,20.43
2022-08-18T21:44:42.372Z,20.42
2022-08-18T21:47:20.076Z,20.39
2022-08-18T21:50:08.239Z,20.40
2022-08-18T21:52:37.721Z,20.38
2022-08-18T21:55:19.370Z,20.41
2022-08-18T21:58:06.060Z,20.41
2022-08-18T22:00:38.233Z,20.34
2022-08-18T22:03:20.518Z,20.27
2022-08-18T22:06:24.208Z,20.28
2022-08-18T22:09:20.917Z,20.27
2022-08-18T22:12:06.468Z,20.18
2022-08-18T22:14:53.832Z,20.15
2022-08-18T22:17:34.395Z,20.16
2022-08-18T22:20:38.516Z,20.15
2022-08-18T22:23:32.774Z,20.13
2022-08-18T22:26:14.213Z,20.19
2022-08-18T22:28:58.397Z,20.17
2022-08-18T22:31:32.504Z,20.11
2022-08-18T22:34:16.402Z,20.11
2022-08-18T22:36:52.705Z,20.22
2022-08-18T22:39:30.280Z,20.26
2022-08-18T22:41:57.685Z,20.22
2022-08-18T22:44:24.751Z,20.22
2022-08-18T22:46:52.586Z,20.22
2022-08-18T22:49:19.984Z,20.25
2022-08-18T22:51:48.384Z,20.28
2022-08-18T22:54:15.850Z,20.20
2022-08-18T22:56:53.823Z,20.20
2022-08-18T22:59:23.520Z,20.16
2022-08-18T23:01:51.057Z,20.16
2022-08-18T23:04:20.165Z,20.12
2022-08-18T23:06:52.022Z,20.08
2022-08-18T23:09:21.260Z,20.01
2022-08-18T23:11:47.821Z,20.00
2022-08-18T23:14:14.801Z,20.01
2022-08-18T23:16:45.323Z,20.00
2022-08-18T23:19:14.259Z,19.95
2022-08-18T23:21:41.641Z,19.99
2022-08-18T23:24:10.204Z,19.98
2022-08-18T23:26:37.289Z,19.95
2022-08-18T23:29:11.365Z,19.96
2022-08-18T23:31:39.636Z,19.93
2022-08-18T23:34:06.403Z,19.82
2022-08-18T23:36:34.186Z,19.77
2022-08-18T23:39:00.858Z,19.82
2022-08-18T23:41:27.396Z,19.83
2022-08-18T23:43:53.954Z,19.81
2022-08-18T23:46:25.666Z,19.83
2022-08-18T23:48:52.832Z,19.79
2022-08-18T23:51:43.217Z,19.72
2022-08-18T23:54:13.269Z,19.72
2022-08-18T23:56:39.769Z,19.64
2022-08-18T23:59:08.190Z,19.58
